sensor_id;sensor_type;location;lat;lon;timestamp;P1;durP1;ratioP1;P2;durP2;ratioP2
8831;SDS011;4452;50.756;4.472;2023-05-16T00:00:39;10.27;;;3.35;;
8831;SDS011;4452;50.756;4.472;2023-05-16T00:03:05;14.02;;;3.58;;
8831;SDS011;4452;50.756;4.472;2023-05-16T00:05:31;7.57;;;2.47;;
8831;SDS011;4452;50.756;4.472;2023-05-16T00:07:57;12.50;;;3.38;;
8831;SDS011;4452;50.756;4.472;2023-05-16T00:10:22;16.75;;;3.63;;
8831;SDS011;4452;50.756;4.472;2023-05-16T00:12:48;8.15;;;3.30;;
8831;SDS011;4452;50.756;4.472;2023-05-16T00:15:15;16.27;;;3.90;;
8831;SDS011;4452;50.756;4.472;2023-05-16T00:17:42;23.98;;;5.90;;
8831;SDS011;4452;50.756;4.472;2023-05-16T00:20:10;11.30;;;3.20;;
8831;SDS011;4452;50.756;4.472;2023-05-16T00:22:38;25.88;;;4.75;;
8831;SDS011;4452;50.756;4.472;2023-05-16T00:25:04;19.77;;;3.00;;
8831;SDS011;4452;50.756;4.472;2023-05-16T00:27:32;19.92;;;3.80;;
8831;SDS011;4452;50.756;4.472;2023-05-16T00:29:59;12.00;;;4.10;;
8831;SDS011;4452;50.756;4.472;2023-05-16T00:32:25;11.85;;;3.30;;
8831;SDS011;4452;50.756;4.472;2023-05-16T00:34:51;15.00;;;4.00;;
8831;SDS011;4452;50.756;4.472;2023-05-16T00:37:17;19.70;;;4.32;;
8831;SDS011;4452;50.756;4.472;2023-05-16T00:39:42;19.20;;;4.95;;
8831;SDS011;4452;50.756;4.472;2023-05-16T00:42:08;18.48;;;3.90;;
8831;SDS011;4452;50.756;4.472;2023-05-16T00:44:34;14.85;;;3.30;;
8831;SDS011;4452;50.756;4.472;2023-05-16T00:46:59;11.82;;;3.90;;
8831;SDS011;4452;50.756;4.472;2023-05-16T00:49:26;14.15;;;3.55;;
8831;SDS011;4452;50.756;4.472;2023-05-16T00:51:53;25.27;;;3.58;;
8831;SDS011;4452;50.756;4.472;2023-05-16T00:54:21;16.65;;;3.35;;
8831;SDS011;4452;50.756;4.472;2023-05-16T00:56:47;17.38;;;3.78;;
8831;SDS011;4452;50.756;4.472;2023-05-16T00:59:13;18.73;;;4.10;;
8831;SDS011;4452;50.756;4.472;2023-05-16T01:01:39;22.45;;;4.35;;
8831;SDS011;4452;50.756;4.472;2023-05-16T01:04:06;18.42;;;3.72;;
8831;SDS011;4452;50.756;4.472;2023-05-16T01:06:32;16.17;;;3.10;;
8831;SDS011;4452;50.756;4.472;2023-05-16T01:08:58;23.25;;;4.03;;
8831;SDS011;4452;50.756;4.472;2023-05-16T01:14:29;10.65;;;3.08;;
8831;SDS011;4452;50.756;4.472;2023-05-16T01:25:20;9.73;;;3.38;;
8831;SDS011;4452;50.756;4.472;2023-05-16T01:28:05;16.08;;;3.50;;
8831;SDS011;4452;50.756;4.472;2023-05-16T01:30:33;14.05;;;3.17;;
8831;SDS011;4452;50.756;4.472;2023-05-16T01:33:00;17.60;;;3.03;;
8831;SDS011;4452;50.756;4.472;2023-05-16T01:35:25;14.50;;;2.83;;
8831;SDS011;4452;50.756;4.472;2023-05-16T01:43:28;16.80;;;4.43;;
8831;SDS011;4452;50.756;4.472;2023-05-16T01:46:03;17.70;;;3.20;;
8831;SDS011;4452;50.756;4.472;2023-05-16T01:48:38;25.70;;;3.50;;
8831;SDS011;4452;50.756;4.472;2023-05-16T01:51:15;14.07;;;3.20;;
8831;SDS011;4452;50.756;4.472;2023-05-16T01:53:42;21.17;;;3.30;;
8831;SDS011;4452;50.756;4.472;2023-05-16T01:56:10;24.42;;;3.28;;
8831;SDS011;4452;50.756;4.472;2023-05-16T01:58:39;12.80;;;2.78;;
8831;SDS011;4452;50.756;4.472;2023-05-16T02:01:06;14.82;;;3.58;;
8831;SDS011;4452;50.756;4.472;2023-05-16T02:03:31;16.35;;;3.08;;
8831;SDS011;4452;50.756;4.472;2023-05-16T02:05:58;20.05;;;3.33;;
8831;SDS011;4452;50.756;4.472;2023-05-16T02:08:24;20.00;;;3.03;;
8831;SDS011;4452;50.756;4.472;2023-05-16T02:10:51;16.98;;;3.65;;
8831;SDS011;4452;50.756;4.472;2023-05-16T02:13:17;14.38;;;3.53;;
8831;SDS011;4452;50.756;4.472;2023-05-16T02:15:43;11.07;;;2.90;;
8831;SDS011;4452;50.756;4.472;2023-05-16T02:18:09;12.60;;;3.25;;
8831;SDS011;4452;50.756;4.472;2023-05-16T02:20:36;21.55;;;3.85;;
8831;SDS011;4452;50.756;4.472;2023-05-16T02:23:02;21.38;;;3.78;;
8831;SDS011;4452;50.756;4.472;2023-05-16T02:25:28;24.90;;;3.90;;
8831;SDS011;4452;50.756;4.472;2023-05-16T02:27:54;15.75;;;2.80;;
8831;SDS011;4452;50.756;4.472;2023-05-16T02:30:20;19.90;;;3.60;;
8831;SDS011;4452;50.756;4.472;2023-05-16T02:32:46;15.75;;;3.88;;
8831;SDS011;4452;50.756;4.472;2023-05-16T02:35:13;9.43;;;2.72;;
8831;SDS011;4452;50.756;4.472;2023-05-16T02:37:39;12.38;;;3.40;;
8831;SDS011;4452;50.756;4.472;2023-05-16T02:40:05;21.65;;;3.75;;
8831;SDS011;4452;50.756;4.472;2023-05-16T02:42:32;23.08;;;4.63;;
8831;SDS011;4452;50.756;4.472;2023-05-16T02:44:57;21.77;;;4.18;;
8831;SDS011;4452;50.756;4.472;2023-05-16T02:47:23;17.30;;;3.47;;
8831;SDS011;4452;50.756;4.472;2023-05-16T02:49:49;18.20;;;4.22;;
8831;SDS011;4452;50.756;4.472;2023-05-16T02:52:16;18.90;;;3.60;;
8831;SDS011;4452;50.756;4.472;2023-05-16T02:54:42;25.85;;;4.57;;
8831;SDS011;4452;50.756;4.472;2023-05-16T02:57:08;24.00;;;3.28;;
8831;SDS011;4452;50.756;4.472;2023-05-16T02:59:34;28.40;;;3.95;;
8831;SDS011;4452;50.756;4.472;2023-05-16T03:02:00;27.92;;;4.47;;
8831;SDS011;4452;50.756;4.472;2023-05-16T03:04:26;23.10;;;3.28;;
8831;SDS011;4452;50.756;4.472;2023-05-16T03:06:51;18.77;;;3.88;;
8831;SDS011;4452;50.756;4.472;2023-05-16T03:09:17;20.45;;;3.65;;
8831;SDS011;4452;50.756;4.472;2023-05-16T03:11:43;13.52;;;3.53;;
8831;SDS011;4452;50.756;4.472;2023-05-16T03:14:10;19.83;;;4.13;;
8831;SDS011;4452;50.756;4.472;2023-05-16T03:16:36;19.40;;;3.78;;
8831;SDS011;4452;50.756;4.472;2023-05-16T03:19:03;23.77;;;3.55;;
8831;SDS011;4452;50.756;4.472;2023-05-16T03:21:29;27.60;;;4.88;;
8831;SDS011;4452;50.756;4.472;2023-05-16T03:23:55;9.98;;;2.92;;
8831;SDS011;4452;50.756;4.472;2023-05-16T03:26:22;18.48;;;3.80;;
8831;SDS011;4452;50.756;4.472;2023-05-16T03:28:51;25.10;;;4.97;;
8831;SDS011;4452;50.756;4.472;2023-05-16T03:31:17;25.58;;;3.80;;
8831;SDS011;4452;50.756;4.472;2023-05-16T03:33:43;13.55;;;2.97;;
8831;SDS011;4452;50.756;4.472;2023-05-16T03:36:09;21.45;;;4.60;;
8831;SDS011;4452;50.756;4.472;2023-05-16T03:38:35;13.02;;;3.72;;
8831;SDS011;4452;50.756;4.472;2023-05-16T03:41:01;18.05;;;3.75;;
8831;SDS011;4452;50.756;4.472;2023-05-16T03:43:27;16.23;;;3.72;;
8831;SDS011;4452;50.756;4.472;2023-05-16T03:45:52;14.10;;;3.08;;
8831;SDS011;4452;50.756;4.472;2023-05-16T03:48:19;19.85;;;4.00;;
8831;SDS011;4452;50.756;4.472;2023-05-16T03:50:45;27.63;;;4.68;;
8831;SDS011;4452;50.756;4.472;2023-05-16T03:53:11;13.93;;;3.83;;
8831;SDS011;4452;50.756;4.472;2023-05-16T03:55:37;12.02;;;3.85;;
8831;SDS011;4452;50.756;4.472;2023-05-16T03:58:03;11.15;;;3.50;;
8831;SDS011;4452;50.756;4.472;2023-05-16T04:00:28;19.60;;;3.78;;
8831;SDS011;4452;50.756;4.472;2023-05-16T04:02:54;17.50;;;3.80;;
8831;SDS011;4452;50.756;4.472;2023-05-16T04:05:20;21.10;;;4.60;;
8831;SDS011;4452;50.756;4.472;2023-05-16T04:07:46;13.88;;;3.85;;
8831;SDS011;4452;50.756;4.472;2023-05-16T04:10:12;18.98;;;4.47;;
8831;SDS011;4452;50.756;4.472;2023-05-16T04:12:38;23.35;;;4.68;;
8831;SDS011;4452;50.756;4.472;2023-05-16T04:15:04;17.40;;;4.20;;
8831;SDS011;4452;50.756;4.472;2023-05-16T04:17:31;19.38;;;4.32;;
8831;SDS011;4452;50.756;4.472;2023-05-16T04:19:57;17.48;;;3.80;;
8831;SDS011;4452;50.756;4.472;2023-05-16T04:22:23;18.10;;;4.43;;
8831;SDS011;4452;50.756;4.472;2023-05-16T04:24:48;23.88;;;5.38;;
8831;SDS011;4452;50.756;4.472;2023-05-16T04:27:15;16.23;;;4.55;;
8831;SDS011;4452;50.756;4.472;2023-05-16T04:29:40;16.40;;;4.07;;
8831;SDS011;4452;50.756;4.472;2023-05-16T04:32:06;14.18;;;4.13;;
8831;SDS011;4452;50.756;4.472;2023-05-16T04:34:33;28.67;;;4.65;;
8831;SDS011;4452;50.756;4.472;2023-05-16T04:37:02;19.65;;;4.07;;
8831;SDS011;4452;50.756;4.472;2023-05-16T04:39:29;10.23;;;3.75;;
8831;SDS011;4452;50.756;4.472;2023-05-16T04:41:56;16.88;;;3.83;;
8831;SDS011;4452;50.756;4.472;2023-05-16T04:44:23;18.83;;;4.30;;
8831;SDS011;4452;50.756;4.472;2023-05-16T04:46:50;19.45;;;4.35;;
8831;SDS011;4452;50.756;4.472;2023-05-16T04:49:17;29.55;;;4.95;;
8831;SDS011;4452;50.756;4.472;2023-05-16T04:51:46;16.13;;;4.55;;
8831;SDS011;4452;50.756;4.472;2023-05-16T04:54:13;18.35;;;4.28;;
8831;SDS011;4452;50.756;4.472;2023-05-16T04:56:39;26.88;;;5.65;;
8831;SDS011;4452;50.756;4.472;2023-05-16T04:59:05;29.25;;;4.53;;
8831;SDS011;4452;50.756;4.472;2023-05-16T05:01:31;18.38;;;4.53;;
8831;SDS011;4452;50.756;4.472;2023-05-16T05:03:56;29.77;;;4.07;;
8831;SDS011;4452;50.756;4.472;2023-05-16T05:06:22;19.98;;;4.63;;
8831;SDS011;4452;50.756;4.472;2023-05-16T05:08:48;23.08;;;5.30;;
8831;SDS011;4452;50.756;4.472;2023-05-16T05:11:15;14.98;;;4.25;;
8831;SDS011;4452;50.756;4.472;2023-05-16T05:13:41;20.58;;;4.20;;
8831;SDS011;4452;50.756;4.472;2023-05-16T05:16:07;12.02;;;4.13;;
8831;SDS011;4452;50.756;4.472;2023-05-16T05:18:33;20.85;;;4.60;;
8831;SDS011;4452;50.756;4.472;2023-05-16T05:20:58;15.05;;;4.03;;
8831;SDS011;4452;50.756;4.472;2023-05-16T05:23:24;25.50;;;4.43;;
8831;SDS011;4452;50.756;4.472;2023-05-16T05:25:50;13.80;;;4.03;;
8831;SDS011;4452;50.756;4.472;2023-05-16T05:28:16;21.48;;;4.00;;
8831;SDS011;4452;50.756;4.472;2023-05-16T05:30:42;19.55;;;4.53;;
8831;SDS011;4452;50.756;4.472;2023-05-16T05:33:09;6.57;;;2.60;;
8831;SDS011;4452;50.756;4.472;2023-05-16T05:35:35;22.27;;;5.82;;
8831;SDS011;4452;50.756;4.472;2023-05-16T05:38:01;9.68;;;3.25;;
8831;SDS011;4452;50.756;4.472;2023-05-16T05:40:28;17.55;;;3.17;;
8831;SDS011;4452;50.756;4.472;2023-05-16T05:42:54;15.80;;;3.13;;
8831;SDS011;4452;50.756;4.472;2023-05-16T05:45:23;13.25;;;3.35;;
8831;SDS011;4452;50.756;4.472;2023-05-16T05:47:51;15.77;;;3.80;;
8831;SDS011;4452;50.756;4.472;2023-05-16T05:50:22;10.60;;;3.20;;
8831;SDS011;4452;50.756;4.472;2023-05-16T05:52:48;13.13;;;3.42;;
8831;SDS011;4452;50.756;4.472;2023-05-16T05:55:13;6.20;;;3.03;;
8831;SDS011;4452;50.756;4.472;2023-05-16T05:57:39;15.88;;;3.50;;
8831;SDS011;4452;50.756;4.472;2023-05-16T06:00:05;12.20;;;3.00;;
8831;SDS011;4452;50.756;4.472;2023-05-16T06:02:31;18.52;;;3.40;;
8831;SDS011;4452;50.756;4.472;2023-05-16T06:04:57;14.88;;;3.22;;
8831;SDS011;4452;50.756;4.472;2023-05-16T06:07:23;13.65;;;3.10;;
8831;SDS011;4452;50.756;4.472;2023-05-16T06:09:48;16.80;;;3.20;;
8831;SDS011;4452;50.756;4.472;2023-05-16T06:12:14;13.23;;;2.67;;
8831;SDS011;4452;50.756;4.472;2023-05-16T06:14:40;11.25;;;3.60;;
8831;SDS011;4452;50.756;4.472;2023-05-16T06:17:06;11.40;;;3.63;;
8831;SDS011;4452;50.756;4.472;2023-05-16T06:19:32;14.25;;;3.72;;
8831;SDS011;4452;50.756;4.472;2023-05-16T06:21:57;17.48;;;3.30;;
8831;SDS011;4452;50.756;4.472;2023-05-16T06:24:23;16.00;;;2.97;;
8831;SDS011;4452;50.756;4.472;2023-05-16T06:26:49;12.27;;;2.90;;
8831;SDS011;4452;50.756;4.472;2023-05-16T06:29:15;13.23;;;3.05;;
8831;SDS011;4452;50.756;4.472;2023-05-16T06:31:41;21.02;;;3.63;;
8831;SDS011;4452;50.756;4.472;2023-05-16T06:34:07;10.82;;;2.25;;
8831;SDS011;4452;50.756;4.472;2023-05-16T06:36:33;11.13;;;2.92;;
8831;SDS011;4452;50.756;4.472;2023-05-16T06:38:58;6.65;;;2.38;;
8831;SDS011;4452;50.756;4.472;2023-05-16T06:41:24;14.13;;;3.33;;
8831;SDS011;4452;50.756;4.472;2023-05-16T06:43:50;11.25;;;2.85;;
8831;SDS011;4452;50.756;4.472;2023-05-16T06:46:16;6.43;;;2.88;;
8831;SDS011;4452;50.756;4.472;2023-05-16T06:48:42;9.85;;;3.53;;
8831;SDS011;4452;50.756;4.472;2023-05-16T06:51:07;10.82;;;3.05;;
8831;SDS011;4452;50.756;4.472;2023-05-16T06:53:34;12.40;;;2.70;;
8831;SDS011;4452;50.756;4.472;2023-05-16T06:56:00;5.70;;;2.47;;
8831;SDS011;4452;50.756;4.472;2023-05-16T06:58:26;15.43;;;2.83;;
8831;SDS011;4452;50.756;4.472;2023-05-16T07:00:52;8.93;;;3.05;;
8831;SDS011;4452;50.756;4.472;2023-05-16T07:03:17;9.52;;;2.75;;
8831;SDS011;4452;50.756;4.472;2023-05-16T07:05:43;8.73;;;2.83;;
8831;SDS011;4452;50.756;4.472;2023-05-16T07:08:08;13.20;;;3.03;;
8831;SDS011;4452;50.756;4.472;2023-05-16T07:10:36;10.70;;;2.78;;
8831;SDS011;4452;50.756;4.472;2023-05-16T07:13:02;17.10;;;3.05;;
8831;SDS011;4452;50.756;4.472;2023-05-16T07:15:29;15.98;;;3.05;;
8831;SDS011;4452;50.756;4.472;2023-05-16T07:17:55;11.23;;;2.67;;
8831;SDS011;4452;50.756;4.472;2023-05-16T07:20:21;22.52;;;2.63;;
8831;SDS011;4452;50.756;4.472;2023-05-16T07:22:48;15.18;;;2.88;;
8831;SDS011;4452;50.756;4.472;2023-05-16T07:25:16;12.90;;;3.85;;
8831;SDS011;4452;50.756;4.472;2023-05-16T07:27:45;8.65;;;2.60;;
8831;SDS011;4452;50.756;4.472;2023-05-16T07:30:14;4.63;;;2.22;;
8831;SDS011;4452;50.756;4.472;2023-05-16T07:32:42;10.68;;;2.95;;
8831;SDS011;4452;50.756;4.472;2023-05-16T07:35:11;14.77;;;2.75;;
8831;SDS011;4452;50.756;4.472;2023-05-16T07:37:39;8.98;;;2.80;;
8831;SDS011;4452;50.756;4.472;2023-05-16T07:40:06;11.30;;;3.38;;
8831;SDS011;4452;50.756;4.472;2023-05-16T07:42:32;13.63;;;2.60;;
8831;SDS011;4452;50.756;4.472;2023-05-16T07:44:58;12.88;;;3.50;;
8831;SDS011;4452;50.756;4.472;2023-05-16T07:47:24;14.48;;;2.95;;
8831;SDS011;4452;50.756;4.472;2023-05-16T07:49:49;9.88;;;2.90;;
8831;SDS011;4452;50.756;4.472;2023-05-16T07:52:15;9.18;;;3.30;;
8831;SDS011;4452;50.756;4.472;2023-05-16T07:54:41;13.63;;;3.30;;
8831;SDS011;4452;50.756;4.472;2023-05-16T07:57:07;10.45;;;2.75;;
8831;SDS011;4452;50.756;4.472;2023-05-16T07:59:33;9.05;;;2.58;;
8831;SDS011;4452;50.756;4.472;2023-05-16T08:01:58;13.32;;;3.10;;
8831;SDS011;4452;50.756;4.472;2023-05-16T08:04:25;7.68;;;2.67;;
8831;SDS011;4452;50.756;4.472;2023-05-16T08:06:51;10.20;;;3.08;;
8831;SDS011;4452;50.756;4.472;2023-05-16T08:09:17;6.88;;;2.50;;
8831;SDS011;4452;50.756;4.472;2023-05-16T08:11:43;12.60;;;3.15;;
8831;SDS011;4452;50.756;4.472;2023-05-16T08:14:10;9.73;;;2.85;;
8831;SDS011;4452;50.756;4.472;2023-05-16T08:16:36;6.28;;;2.50;;
8831;SDS011;4452;50.756;4.472;2023-05-16T08:19:01;9.63;;;3.17;;
8831;SDS011;4452;50.756;4.472;2023-05-16T08:21:27;7.70;;;2.33;;
8831;SDS011;4452;50.756;4.472;2023-05-16T08:23:53;7.25;;;2.20;;
8831;SDS011;4452;50.756;4.472;2023-05-16T08:26:18;10.52;;;2.58;;
8831;SDS011;4452;50.756;4.472;2023-05-16T08:28:45;9.27;;;2.55;;
8831;SDS011;4452;50.756;4.472;2023-05-16T08:31:11;8.93;;;2.20;;
8831;SDS011;4452;50.756;4.472;2023-05-16T08:33:37;8.55;;;2.42;;
8831;SDS011;4452;50.756;4.472;2023-05-16T08:36:03;6.07;;;2.60;;
8831;SDS011;4452;50.756;4.472;2023-05-16T08:38:29;7.50;;;2.53;;
8831;SDS011;4452;50.756;4.472;2023-05-16T08:40:55;8.98;;;2.92;;
8831;SDS011;4452;50.756;4.472;2023-05-16T08:43:20;9.52;;;3.00;;
8831;SDS011;4452;50.756;4.472;2023-05-16T08:45:46;18.58;;;3.22;;
8831;SDS011;4452;50.756;4.472;2023-05-16T08:48:12;12.75;;;2.92;;
8831;SDS011;4452;50.756;4.472;2023-05-16T08:50:41;9.65;;;2.55;;
8831;SDS011;4452;50.756;4.472;2023-05-16T08:53:09;6.18;;;2.53;;
8831;SDS011;4452;50.756;4.472;2023-05-16T08:55:39;10.27;;;2.97;;
8831;SDS011;4452;50.756;4.472;2023-05-16T08:58:06;16.48;;;2.95;;
8831;SDS011;4452;50.756;4.472;2023-05-16T09:00:32;11.77;;;2.60;;
8831;SDS011;4452;50.756;4.472;2023-05-16T09:02:59;7.75;;;3.17;;
8831;SDS011;4452;50.756;4.472;2023-05-16T09:05:28;9.32;;;2.60;;
8831;SDS011;4452;50.756;4.472;2023-05-16T09:07:54;5.25;;;2.20;;
8831;SDS011;4452;50.756;4.472;2023-05-16T09:10:20;7.75;;;2.28;;
8831;SDS011;4452;50.756;4.472;2023-05-16T09:12:45;9.23;;;2.42;;
8831;SDS011;4452;50.756;4.472;2023-05-16T09:15:11;8.43;;;2.53;;
8831;SDS011;4452;50.756;4.472;2023-05-16T09:17:37;8.52;;;2.38;;
8831;SDS011;4452;50.756;4.472;2023-05-16T09:20:10;7.90;;;2.70;;
8831;SDS011;4452;50.756;4.472;2023-05-16T09:22:57;5.57;;;2.15;;
8831;SDS011;4452;50.756;4.472;2023-05-16T09:25:24;5.53;;;2.40;;
8831;SDS011;4452;50.756;4.472;2023-05-16T09:27:55;11.02;;;2.35;;
8831;SDS011;4452;50.756;4.472;2023-05-16T09:30:21;6.03;;;2.42;;
8831;SDS011;4452;50.756;4.472;2023-05-16T09:32:51;7.68;;;2.22;;
8831;SDS011;4452;50.756;4.472;2023-05-16T09:35:18;4.38;;;1.92;;
8831;SDS011;4452;50.756;4.472;2023-05-16T09:37:45;10.23;;;2.47;;
8831;SDS011;4452;50.756;4.472;2023-05-16T09:40:11;6.50;;;2.20;;
8831;SDS011;4452;50.756;4.472;2023-05-16T09:42:37;21.75;;;3.42;;
8831;SDS011;4452;50.756;4.472;2023-05-16T09:45:03;5.32;;;1.98;;
8831;SDS011;4452;50.756;4.472;2023-05-16T09:47:30;7.40;;;2.45;;
8831;SDS011;4452;50.756;4.472;2023-05-16T09:49:55;5.85;;;2.20;;
8831;SDS011;4452;50.756;4.472;2023-05-16T09:52:21;5.90;;;2.00;;
8831;SDS011;4452;50.756;4.472;2023-05-16T09:54:50;5.38;;;2.05;;
8831;SDS011;4452;50.756;4.472;2023-05-16T09:57:22;11.43;;;2.97;;
8831;SDS011;4452;50.756;4.472;2023-05-16T09:59:51;8.13;;;2.30;;
8831;SDS011;4452;50.756;4.472;2023-05-16T10:02:16;7.72;;;2.08;;
8831;SDS011;4452;50.756;4.472;2023-05-16T10:04:43;4.97;;;2.03;;
8831;SDS011;4452;50.756;4.472;2023-05-16T10:07:08;6.95;;;2.55;;
8831;SDS011;4452;50.756;4.472;2023-05-16T10:09:35;10.30;;;2.90;;
8831;SDS011;4452;50.756;4.472;2023-05-16T10:12:02;6.32;;;2.22;;
8831;SDS011;4452;50.756;4.472;2023-05-16T10:14:33;8.75;;;2.15;;
8831;SDS011;4452;50.756;4.472;2023-05-16T10:17:03;9.45;;;2.05;;
8831;SDS011;4452;50.756;4.472;2023-05-16T10:19:31;7.72;;;2.67;;
8831;SDS011;4452;50.756;4.472;2023-05-16T10:22:03;6.38;;;2.53;;
8831;SDS011;4452;50.756;4.472;2023-05-16T10:24:43;5.93;;;2.60;;
8831;SDS011;4452;50.756;4.472;2023-05-16T10:27:16;5.47;;;2.60;;
8831;SDS011;4452;50.756;4.472;2023-05-16T10:29:42;3.83;;;2.63;;
8831;SDS011;4452;50.756;4.472;2023-05-16T10:32:09;4.32;;;2.30;;
8831;SDS011;4452;50.756;4.472;2023-05-16T10:34:36;4.85;;;2.63;;
8831;SDS011;4452;50.756;4.472;2023-05-16T10:37:03;4.38;;;2.25;;
8831;SDS011;4452;50.756;4.472;2023-05-16T10:39:30;3.33;;;2.05;;
8831;SDS011;4452;50.756;4.472;2023-05-16T10:41:57;3.15;;;2.10;;
8831;SDS011;4452;50.756;4.472;2023-05-16T10:44:24;3.03;;;1.67;;
8831;SDS011;4452;50.756;4.472;2023-05-16T10:46:50;6.57;;;2.70;;
8831;SDS011;4452;50.756;4.472;2023-05-16T10:49:19;5.35;;;2.28;;
8831;SDS011;4452;50.756;4.472;2023-05-16T10:54:34;3.75;;;2.05;;
8831;SDS011;4452;50.756;4.472;2023-05-16T10:57:05;6.60;;;2.13;;
8831;SDS011;4452;50.756;4.472;2023-05-16T10:59:43;6.47;;;2.15;;
8831;SDS011;4452;50.756;4.472;2023-05-16T11:05:06;6.70;;;2.28;;
8831;SDS011;4452;50.756;4.472;2023-05-16T11:07:41;4.72;;;2.00;;
8831;SDS011;4452;50.756;4.472;2023-05-16T11:10:08;6.00;;;2.00;;
8831;SDS011;4452;50.756;4.472;2023-05-16T11:12:44;9.32;;;2.35;;
8831;SDS011;4452;50.756;4.472;2023-05-16T11:15:25;8.13;;;2.30;;
8831;SDS011;4452;50.756;4.472;2023-05-16T11:20:35;4.32;;;1.67;;
8831;SDS011;4452;50.756;4.472;2023-05-16T11:25:47;6.32;;;2.05;;
8831;SDS011;4452;50.756;4.472;2023-05-16T11:28:16;4.70;;;2.42;;
8831;SDS011;4452;50.756;4.472;2023-05-16T11:30:43;3.30;;;2.10;;
8831;SDS011;4452;50.756;4.472;2023-05-16T11:33:16;4.00;;;2.35;;
8831;SDS011;4452;50.756;4.472;2023-05-16T11:35:43;5.53;;;2.33;;
8831;SDS011;4452;50.756;4.472;2023-05-16T11:38:23;6.22;;;2.20;;
8831;SDS011;4452;50.756;4.472;2023-05-16T11:40:49;7.35;;;2.08;;
8831;SDS011;4452;50.756;4.472;2023-05-16T11:43:17;4.28;;;1.90;;
8831;SDS011;4452;50.756;4.472;2023-05-16T11:45:43;7.22;;;1.95;;
8831;SDS011;4452;50.756;4.472;2023-05-16T11:48:09;7.88;;;1.90;;
8831;SDS011;4452;50.756;4.472;2023-05-16T11:50:35;12.35;;;2.45;;
8831;SDS011;4452;50.756;4.472;2023-05-16T11:53:01;6.40;;;2.55;;
8831;SDS011;4452;50.756;4.472;2023-05-16T11:55:28;6.25;;;2.05;;
8831;SDS011;4452;50.756;4.472;2023-05-16T11:57:58;1.88;;;1.77;;
8831;SDS011;4452;50.756;4.472;2023-05-16T12:00:25;2.47;;;2.03;;
8831;SDS011;4452;50.756;4.472;2023-05-16T12:02:52;3.95;;;1.90;;
8831;SDS011;4452;50.756;4.472;2023-05-16T12:05:20;6.47;;;2.03;;
8831;SDS011;4452;50.756;4.472;2023-05-16T12:07:49;7.35;;;2.28;;
8831;SDS011;4452;50.756;4.472;2023-05-16T12:10:18;3.90;;;1.95;;
8831;SDS011;4452;50.756;4.472;2023-05-16T12:12:45;4.82;;;2.40;;
8831;SDS011;4452;50.756;4.472;2023-05-16T12:15:16;5.70;;;2.20;;
8831;SDS011;4452;50.756;4.472;2023-05-16T12:17:42;3.00;;;1.98;;
8831;SDS011;4452;50.756;4.472;2023-05-16T12:20:09;5.10;;;2.00;;
8831;SDS011;4452;50.756;4.472;2023-05-16T12:22:41;3.25;;;1.92;;
8831;SDS011;4452;50.756;4.472;2023-05-16T12:25:20;5.10;;;2.20;;
8831;SDS011;4452;50.756;4.472;2023-05-16T12:28:03;6.28;;;2.00;;
8831;SDS011;4452;50.756;4.472;2023-05-16T12:30:31;7.80;;;2.00;;
8831;SDS011;4452;50.756;4.472;2023-05-16T12:32:58;5.70;;;2.30;;
8831;SDS011;4452;50.756;4.472;2023-05-16T12:35:29;4.13;;;1.92;;
8831;SDS011;4452;50.756;4.472;2023-05-16T12:37:56;2.97;;;2.42;;
8831;SDS011;4452;50.756;4.472;2023-05-16T12:40:22;3.90;;;2.25;;
8831;SDS011;4452;50.756;4.472;2023-05-16T12:42:48;4.55;;;2.28;;
8831;SDS011;4452;50.756;4.472;2023-05-16T12:45:16;8.55;;;2.42;;
8831;SDS011;4452;50.756;4.472;2023-05-16T12:47:42;2.92;;;1.88;;
8831;SDS011;4452;50.756;4.472;2023-05-16T12:50:12;8.45;;;2.00;;
8831;SDS011;4452;50.756;4.472;2023-05-16T12:52:45;3.67;;;1.90;;
8831;SDS011;4452;50.756;4.472;2023-05-16T12:55:15;8.48;;;2.00;;
8831;SDS011;4452;50.756;4.472;2023-05-16T12:57:42;7.32;;;2.03;;
8831;SDS011;4452;50.756;4.472;2023-05-16T13:00:10;5.07;;;2.20;;
8831;SDS011;4452;50.756;4.472;2023-05-16T13:02:36;8.38;;;2.47;;
8831;SDS011;4452;50.756;4.472;2023-05-16T13:05:03;5.13;;;2.10;;
8831;SDS011;4452;50.756;4.472;2023-05-16T13:07:29;6.53;;;2.42;;
8831;SDS011;4452;50.756;4.472;2023-05-16T13:09:55;6.40;;;2.15;;
8831;SDS011;4452;50.756;4.472;2023-05-16T13:12:20;5.18;;;2.00;;
8831;SDS011;4452;50.756;4.472;2023-05-16T13:14:50;4.35;;;1.77;;
8831;SDS011;4452;50.756;4.472;2023-05-16T13:17:17;7.40;;;2.25;;
8831;SDS011;4452;50.756;4.472;2023-05-16T13:19:42;3.00;;;1.90;;
8831;SDS011;4452;50.756;4.472;2023-05-16T13:22:08;4.88;;;1.83;;
8831;SDS011;4452;50.756;4.472;2023-05-16T13:24:34;9.05;;;2.10;;
8831;SDS011;4452;50.756;4.472;2023-05-16T13:27:00;3.45;;;1.77;;
8831;SDS011;4452;50.756;4.472;2023-05-16T13:29:25;5.68;;;2.10;;
8831;SDS011;4452;50.756;4.472;2023-05-16T13:31:51;6.20;;;1.95;;
8831;SDS011;4452;50.756;4.472;2023-05-16T13:34:17;6.05;;;2.45;;
8831;SDS011;4452;50.756;4.472;2023-05-16T13:36:42;10.38;;;2.25;;
8831;SDS011;4452;50.756;4.472;2023-05-16T13:39:10;8.50;;;2.20;;
8831;SDS011;4452;50.756;4.472;2023-05-16T13:41:37;5.57;;;2.13;;
8831;SDS011;4452;50.756;4.472;2023-05-16T13:44:04;4.82;;;2.00;;
8831;SDS011;4452;50.756;4.472;2023-05-16T13:46:30;4.63;;;2.30;;
8831;SDS011;4452;50.756;4.472;2023-05-16T13:48:57;3.33;;;1.70;;
8831;SDS011;4452;50.756;4.472;2023-05-16T13:51:24;4.45;;;2.13;;
8831;SDS011;4452;50.756;4.472;2023-05-16T13:53:49;7.32;;;1.88;;
8831;SDS011;4452;50.756;4.472;2023-05-16T13:56:15;7.07;;;1.98;;
8831;SDS011;4452;50.756;4.472;2023-05-16T13:58:41;4.40;;;2.20;;
8831;SDS011;4452;50.756;4.472;2023-05-16T14:01:07;3.75;;;2.00;;
8831;SDS011;4452;50.756;4.472;2023-05-16T14:03:33;13.48;;;2.40;;
8831;SDS011;4452;50.756;4.472;2023-05-16T14:06:00;4.72;;;2.60;;
8831;SDS011;4452;50.756;4.472;2023-05-16T14:08:27;9.50;;;1.92;;
8831;SDS011;4452;50.756;4.472;2023-05-16T14:10:53;6.60;;;1.98;;
8831;SDS011;4452;50.756;4.472;2023-05-16T14:13:19;2.45;;;1.67;;
8831;SDS011;4452;50.756;4.472;2023-05-16T14:15:47;7.75;;;1.90;;
8831;SDS011;4452;50.756;4.472;2023-05-16T14:18:16;6.72;;;2.42;;
8831;SDS011;4452;50.756;4.472;2023-05-16T14:20:44;3.05;;;1.88;;
8831;SDS011;4452;50.756;4.472;2023-05-16T14:23:12;4.50;;;2.10;;
8831;SDS011;4452;50.756;4.472;2023-05-16T14:25:40;3.45;;;1.80;;
8831;SDS011;4452;50.756;4.472;2023-05-16T14:28:11;4.82;;;1.60;;
8831;SDS011;4452;50.756;4.472;2023-05-16T14:30:37;9.55;;;2.50;;
8831;SDS011;4452;50.756;4.472;2023-05-16T14:33:03;4.40;;;2.00;;
8831;SDS011;4452;50.756;4.472;2023-05-16T14:35:30;4.20;;;1.77;;
8831;SDS011;4452;50.756;4.472;2023-05-16T14:37:56;4.40;;;2.13;;
8831;SDS011;4452;50.756;4.472;2023-05-16T14:40:22;4.85;;;2.10;;
8831;SDS011;4452;50.756;4.472;2023-05-16T14:42:48;2.10;;;1.90;;
8831;SDS011;4452;50.756;4.472;2023-05-16T14:45:14;5.50;;;2.03;;
8831;SDS011;4452;50.756;4.472;2023-05-16T14:47:41;4.50;;;2.17;;
8831;SDS011;4452;50.756;4.472;2023-05-16T14:50:07;3.30;;;1.90;;
8831;SDS011;4452;50.756;4.472;2023-05-16T14:52:36;3.10;;;1.83;;
8831;SDS011;4452;50.756;4.472;2023-05-16T14:55:04;4.95;;;1.98;;
8831;SDS011;4452;50.756;4.472;2023-05-16T14:57:30;2.10;;;1.70;;
8831;SDS011;4452;50.756;4.472;2023-05-16T14:59:57;4.65;;;1.77;;
8831;SDS011;4452;50.756;4.472;2023-05-16T15:02:22;2.75;;;1.70;;
8831;SDS011;4452;50.756;4.472;2023-05-16T15:04:48;1.70;;;1.60;;
8831;SDS011;4452;50.756;4.472;2023-05-16T15:07:14;5.18;;;2.00;;
8831;SDS011;4452;50.756;4.472;2023-05-16T15:09:40;4.07;;;1.58;;
8831;SDS011;4452;50.756;4.472;2023-05-16T15:12:06;9.95;;;2.38;;
8831;SDS011;4452;50.756;4.472;2023-05-16T15:14:32;1.50;;;1.40;;
8831;SDS011;4452;50.756;4.472;2023-05-16T15:16:58;5.50;;;2.03;;
8831;SDS011;4452;50.756;4.472;2023-05-16T15:19:24;2.35;;;1.30;;
8831;SDS011;4452;50.756;4.472;2023-05-16T15:21:49;2.65;;;1.85;;
8831;SDS011;4452;50.756;4.472;2023-05-16T15:24:15;2.05;;;1.48;;
8831;SDS011;4452;50.756;4.472;2023-05-16T15:26:42;4.80;;;1.80;;
8831;SDS011;4452;50.756;4.472;2023-05-16T15:29:07;6.53;;;1.73;;
8831;SDS011;4452;50.756;4.472;2023-05-16T15:31:33;1.80;;;1.60;;
8831;SDS011;4452;50.756;4.472;2023-05-16T15:33:59;3.85;;;1.92;;